Time;durP1;ratioP1;P1;durP2;ratioP2;P2;SDS_P1;SDS_P2;PMS_P1;PMS_P2;Temp;Humidity;BMP_temperature;BMP_pressure;BME280_temperature;BME280_humidity;BME280_pressure;Samples;Min_cycle;Max_cycle;Signal;HPM_P1;HPM_P2
2023/11/25 08:16:39;;;;;;;;;2.00;0.67;;;;;22.29;40.62;101927.06;5142277;23;46155;-75
2023/11/25 08:19:05;;;;;;;;;1.33;1.00;;;;;22.33;40.72;101931.06;4959268;28;45424;-72
2023/11/25 08:21:30;;;;;;;;;0.33;0.33;;;;;22.33;40.71;101923.09;4964044;28;45425;-75
2023/11/25 08:23:56;;;;;;;;;2.00;1.00;;;;;22.30;40.52;101907.53;4962137;28;45373;-74
2023/11/25 08:26:25;;;;;;;;;2.00;2.00;;;;;22.40;40.93;101916.19;4965541;28;45951;-75
2023/11/25 08:28:52;;;;;;;;;2.00;1.00;;;;;22.51;40.36;101922.22;4956988;28;45402;-75
2023/11/25 08:31:18;;;;;;;;;2.67;1.00;;;;;22.57;40.67;101921.59;4956968;28;45298;-75
2023/11/25 08:33:43;;;;;;;;;1.00;1.00;;;;;22.61;40.29;101922.94;4957187;28;45680;-76
2023/11/25 08:36:11;;;;;;;;;3.33;1.00;;;;;22.65;40.32;101923.47;4961152;28;59626;-75
2023/11/25 08:38:36;;;;;;;;;1.00;1.00;;;;;22.69;40.65;101924.00;4965665;28;45888;-76
2023/11/25 08:41:05;;;;;;;;;5.00;1.00;;;;;22.63;40.38;101907.72;4965293;28;45421;-75
2023/11/25 08:43:32;;;;;;;;;1.00;1.00;;;;;22.62;40.69;101903.38;4966484;28;45594;-76
2023/11/25 08:45:57;;;;;;;;;2.00;2.00;;;;;22.52;40.59;101890.25;4965374;28;47182;-75
2023/11/25 08:48:23;;;;;;;;;1.67;1.00;;;;;22.80;40.24;101921.06;4964800;28;45392;-75
2023/11/25 08:50:48;;;;;;;;;3.00;1.00;;;;;22.74;40.31;101908.47;4965868;28;45424;-75
2023/11/25 08:53:16;;;;;;;;;1.00;1.00;;;;;22.78;40.28;101909.78;4965453;28;45321;-76
2023/11/25 08:55:41;;;;;;;;;3.00;2.00;;;;;22.81;40.22;101916.59;4964935;28;45429;-75
2023/11/25 08:58:07;;;;;;;;;2.33;1.00;;;;;22.90;40.47;101926.25;4966278;28;53400;-76
2023/11/25 09:00:33;;;;;;;;;2.00;1.67;;;;;22.81;40.34;101903.34;4964641;28;45347;-74
2023/11/25 09:02:59;;;;;;;;;1.00;1.00;;;;;22.84;39.72;101903.84;4965482;28;45337;-75
2023/11/25 09:05:25;;;;;;;;;2.33;1.00;;;;;22.93;39.63;101917.97;4974150;28;45396;-75
2023/11/25 09:07:51;;;;;;;;;2.00;0.33;;;;;22.93;40.06;101911.81;4975528;28;45361;-75
2023/11/25 09:10:17;;;;;;;;;2.00;2.00;;;;;22.97;40.18;101918.50;4975947;28;45394;-76
2023/11/25 09:12:45;;;;;;;;;1.00;1.00;;;;;22.92;40.55;101910.19;4975714;28;45515;-75
2023/11/25 09:15:12;;;;;;;;;1.67;1.00;;;;;22.95;40.13;101904.56;4974837;28;46925;-76
2023/11/25 09:17:39;;;;;;;;;1.00;1.00;;;;;23.02;40.56;101908.22;4975586;28;45485;-75
2023/11/25 09:20:11;;;;;;;;;2.00;1.00;;;;;22.98;40.84;101906.88;4975751;28;45475;-75
2023/11/25 09:22:38;;;;;;;;;1.00;0.67;;;;;23.01;40.34;101905.72;4975607;28;45530;-76
2023/11/25 09:25:04;;;;;;;;;1.00;1.00;;;;;23.12;40.32;101915.22;4975502;28;47014;-75
2023/11/25 09:27:29;;;;;;;;;1.67;1.67;;;;;22.96;40.35;101885.81;4975610;28;45372;-74
2023/11/25 09:29:55;;;;;;;;;3.00;1.67;;;;;23.14;40.50;101905.25;4975423;28;45335;-75
2023/11/25 09:32:22;;;;;;;;;1.00;1.00;;;;;22.91;40.48;101866.03;4977237;28;45340;-74
2023/11/25 09:34:48;;;;;;;;;1.33;1.33;;;;;23.04;40.47;101884.16;4978801;28;46682;-75
2023/11/25 09:37:14;;;;;;;;;2.00;1.00;;;;;23.18;40.73;101909.25;4978975;28;45305;-73
2023/11/25 09:39:40;;;;;;;;;1.33;1.33;;;;;23.06;40.42;101888.31;4977713;28;45337;-76
2023/11/25 09:42:05;;;;;;;;;1.00;1.00;;;;;23.21;40.66;101911.59;4978862;28;45459;-73
2023/11/25 09:44:32;;;;;;;;;2.67;1.00;;;;;23.21;40.56;101908.94;4978404;28;46041;-75
2023/11/25 09:46:57;;;;;;;;;2.00;0.00;;;;;23.20;40.68;101904.63;4978692;28;45458;-76
2023/11/25 09:49:23;;;;;;;;;1.00;1.00;;;;;23.24;40.25;101926.34;4978865;28;45459;-75
2023/11/25 09:51:48;;;;;;;;;1.00;1.00;;;;;23.04;40.39;101882.34;4978561;28;45385;-75
2023/11/25 09:54:21;;;;;;;;;1.00;1.00;;;;;23.25;40.51;101915.59;4978696;28;45452;-76
2023/11/25 09:56:50;;;;;;;;;3.67;1.33;;;;;23.25;40.45;101918.25;4978546;28;45345;-75
2023/11/25 09:59:18;;;;;;;;;1.67;1.67;;;;;23.19;40.22;101908.25;4978362;28;45384;-75
2023/11/25 10:01:44;;;;;;;;;3.00;1.00;;;;;23.21;40.18;101910.75;4978535;28;45376;-73
2023/11/25 10:04:15;;;;;;;;;2.00;0.00;;;;;23.24;40.17;101918.38;4978278;28;46051;-76
2023/11/25 10:06:41;;;;;;;;;1.00;1.00;;;;;23.23;40.35;101917.56;4978437;28;45588;-75
2023/11/25 10:09:09;;;;;;;;;2.00;1.00;;;;;23.03;39.87;101896.59;4978597;28;45961;-74
2023/11/25 10:11:35;;;;;;;;;2.00;1.00;;;;;23.26;40.01;101919.88;4978588;28;45269;-75
2023/11/25 10:14:03;;;;;;;;;2.67;1.00;;;;;23.27;40.65;101934.00;4977842;28;47139;-73
2023/11/25 10:16:29;;;;;;;;;3.00;0.67;;;;;23.26;40.49;101925.19;4978119;28;45352;-73
2023/11/25 10:18:56;;;;;;;;;1.67;1.00;;;;;23.15;40.45;101913.06;4978215;28;46554;-73
2023/11/25 10:21:22;;;;;;;;;1.00;1.00;;;;;23.24;40.02;101919.22;4978418;28;45380;-76
2023/11/25 10:23:51;;;;;;;;;2.00;0.00;;;;;23.06;40.45;101898.94;4977974;28;45411;-76
2023/11/25 10:26:18;;;;;;;;;2.00;1.00;;;;;23.26;40.68;101921.72;4978316;28;45447;-76
2023/11/25 10:28:45;;;;;;;;;0.33;0.00;;;;;23.24;40.47;101919.22;4977961;28;45439;-73
2023/11/25 10:31:13;;;;;;;;;4.33;1.33;;;;;23.26;39.24;101916.41;4978234;28;45411;-78
2023/11/25 10:33:40;;;;;;;;;1.00;1.00;;;;;22.93;35.13;101888.78;4977962;28;45364;-73
2023/11/25 10:36:08;;;;;;;;;2.00;1.00;;;;;22.89;34.12;101910.50;4977645;28;45338;-73
2023/11/25 10:38:39;;;;;;;;;2.00;1.00;;;;;22.45;33.00;101917.56;4978081;28;45301;-73
2023/11/25 10:41:05;;;;;;;;;1.33;1.33;;;;;21.89;32.60;101895.63;4974737;28;45536;-75
2023/11/25 10:43:31;;;;;;;;;2.00;0.33;;;;;21.60;32.64;101912.56;4965301;28;47271;-76
2023/11/25 10:46:02;;;;;;;;;4.33;1.33;;;;;21.27;32.92;101913.94;4967508;28;45505;-76
2023/11/25 10:48:28;;;;;;;;;3.67;0.67;;;;;20.88;32.66;101912.28;4968423;28;45323;-75
2023/11/25 10:50:53;;;;;;;;;1.67;0.67;;;;;20.50;32.57;101888.50;4965828;28;45254;-77
2023/11/25 10:53:21;;;;;;;;;3.00;1.00;;;;;20.21;32.76;101899.97;4966645;28;59533;-77
2023/11/25 10:55:47;;;;;;;;;2.00;1.00;;;;;19.72;32.43;101865.50;4968150;28;45352;-77
2023/11/25 10:58:15;;;;;;;;;2.00;0.00;;;;;19.71;32.60;101889.41;4966549;28;45265;-77
2023/11/25 11:00:40;;;;;;;;;1.00;0.67;;;;;19.64;33.26;101907.63;4966378;28;45465;-78
2023/11/25 11:03:09;;;;;;;;;1.33;0.00;;;;;19.65;33.79;101895.28;4981106;28;46912;-77
2023/11/25 11:05:52;;;;;;;;;3.00;1.00;;;;;19.87;34.13;101909.16;4967635;28;45633;-78
2023/11/25 11:08:24;;;;;;;;;4.67;1.00;;;;;19.91;34.13;101871.75;4968155;28;45265;-80
2023/11/25 11:10:59;;;;;;;;;1.33;1.00;;;;;20.26;33.83;101893.31;4966277;28;45468;-78
2023/11/25 11:13:40;;;;;;;;;2.00;0.00;;;;;20.32;34.30;101876.03;4966004;28;47059;-77
2023/11/25 11:16:38;;;;;;;;;0.33;0.00;;;;;20.55;34.62;101880.97;4968782;28;45270;-76
2023/11/25 11:19:03;;;;;;;;;0.33;0.00;;;;;20.77;34.62;101891.31;4985613;28;45623;-75
2023/11/25 11:21:36;;;;;;;;;0.67;0.33;;;;;20.89;34.44;101895.44;4982951;28;45495;-75
2023/11/25 11:24:02;;;;;;;;;3.33;1.00;;;;;20.84;34.63;101884.47;4983125;28;47070;-76
2023/11/25 11:26:35;;;;;;;;;2.67;1.00;;;;;21.09;34.54;101897.16;4984586;28;45428;-76
2023/11/25 11:29:13;;;;;;;;;2.00;1.00;;;;;21.18;34.80;101891.00;4984632;28;45502;-75
2023/11/25 11:31:59;;;;;;;;;0.33;0.33;;;;;21.28;34.82;101894.44;4985814;28;45528;-76
2023/11/25 11:34:30;;;;;;;;;0.00;0.00;;;;;21.29;35.01;101874.06;4983635;28;45496;-75
2023/11/25 11:36:56;;;;;;;;;1.00;0.67;;;;;21.44;35.34;101887.63;4983206;28;45434;-75
2023/11/25 11:39:32;;;;;;;;;6.00;1.00;;;;;;;;4991256;28;45456;-76
2023/11/25 11:42:25;;;;;;;;;1.00;0.33;;;;;21.58;35.47;101878.31;4987640;28;45339;-76
2023/11/25 11:45:22;;;;;;;;;1.33;0.67;;;;;21.63;35.20;101876.03;4974518;28;47349;-76
2023/11/25 11:47:51;;;;;;;;;3.33;0.33;;;;;21.70;35.56;101868.31;4973943;28;45418;-76
2023/11/25 11:50:19;;;;;;;;;3.00;0.67;;;;;21.76;35.60;101866.03;4989362;28;45382;-73
2023/11/25 11:53:12;;;;;;;;;2.67;0.67;;;;;21.76;35.60;101861.56;4994228;28;45398;-75
2023/11/25 11:55:39;;;;;;;;;0.33;0.00;;;;;21.86;35.25;101861.47;4986980;28;46567;-76
2023/11/25 11:58:16;;;;;;;;;0.00;0.00;;;;;21.78;35.70;101837.59;4976757;28;45293;-76
2023/11/25 12:00:45;;;;;;;;;1.67;0.33;;;;;21.95;35.44;101860.59;4974325;28;45502;-78
2023/11/25 12:03:10;;;;;;;;;0.67;0.67;;;;;21.90;35.58;101846.13;4976780;28;45438;-78
2023/11/25 12:05:36;;;;;;;;;2.67;0.33;;;;;21.62;35.44;101794.09;4976595;28;45844;-79
2023/11/25 12:08:02;;;;;;;;;0.67;0.67;;;;;22.03;35.77;101856.31;4976034;28;45424;-79
2023/11/25 12:10:27;;;;;;;;;1.33;0.00;;;;;22.09;35.98;101857.53;4975191;28;45520;-79
2023/11/25 12:12:53;;;;;;;;;2.00;1.00;;;;;22.00;35.71;101832.78;4974587;28;45374;-76
2023/11/25 12:15:19;;;;;;;;;2.67;0.00;;;;;22.05;35.96;101833.97;4975488;28;59045;-74
2023/11/25 12:17:45;;;;;;;;;0.33;0.00;;;;;22.17;36.04;101858.41;4969800;28;45722;-72
2023/11/25 18:48:21;;;;;;;;;0.00;0.00;;;;;22.24;37.46;101873.69;5450458;23;46260;-72
2023/11/25 18:50:47;;;;;;;;;0.00;0.00;;;;;22.25;37.18;101886.78;4947917;28;45711;-74
2023/11/25 18:53:12;;;;;;;;;0.67;0.00;;;;;22.27;37.57;101886.63;4944156;28;46448;-76
2023/11/25 18:55:38;;;;;;;;;2.00;1.00;;;;;22.18;37.60;101862.72;4944625;28;46177;-76
2023/11/25 18:58:03;;;;;;;;;1.67;1.67;;;;;22.19;37.28;101866.22;4954138;28;45391;-75
2023/11/25 19:00:29;;;;;;;;;2.00;1.00;;;;;22.28;37.47;101881.16;4948128;28;45445;-75
2023/11/25 19:02:55;;;;;;;;;1.33;0.00;;;;;22.29;37.85;101880.19;4957381;28;45489;-74
2023/11/25 19:05:20;;;;;;;;;1.67;0.00;;;;;22.30;37.51;101886.31;4956385;28;45433;-75
2023/11/25 19:07:46;;;;;;;;;2.00;1.00;;;;;22.24;38.06;101869.22;4944460;28;45521;-74
2023/11/25 19:10:11;;;;;;;;;0.00;0.00;;;;;22.23;37.65;101862.25;4953919;28;45385;-79
2023/11/25 19:12:36;;;;;;;;;1.00;0.00;;;;;22.33;38.03;101871.94;4954085;28;45438;-77
2023/11/25 19:15:03;;;;;;;;;1.00;0.67;;;;;22.18;37.84;101849.47;4957315;28;48886;-77
2023/11/25 19:17:28;;;;;;;;;0.67;0.67;;;;;22.20;37.77;101851.13;4956852;28;45370;-79
2023/11/25 19:19:53;;;;;;;;;1.00;0.00;;;;;22.25;37.95;101862.91;4956734;28;45467;-79
2023/11/25 19:22:19;;;;;;;;;0.33;0.33;;;;;22.28;38.18;101859.13;4958288;28;45349;-79
2023/11/25 19:24:45;;;;;;;;;2.00;1.00;;;;;22.24;38.12;101863.91;4945659;28;45940;-79
2023/11/25 19:27:10;;;;;;;;;1.00;1.00;;;;;22.07;38.41;101829.34;4956655;28;45331;-80
2023/11/25 19:29:41;;;;;;;;;0.67;0.33;;;;;22.37;38.36;101875.91;4943601;28;45585;-80
2023/11/25 19:32:08;;;;;;;;;0.00;0.00;;;;;22.37;38.17;101884.72;4945345;28;45392;-79
2023/11/25 19:34:33;;;;;;;;;0.67;0.00;;;;;22.35;38.33;101875.25;4950524;28;46219;-81
2023/11/25 19:36:58;;;;;;;;;1.67;0.00;;;;;22.04;37.76;101821.72;4938368;28;45406;-81
2023/11/25 19:39:23;;;;;;;;;1.00;1.00;;;;;22.40;37.87;101886.22;4948477;28;45416;-79
2023/11/25 19:41:49;;;;;;;;;1.00;1.00;;;;;22.40;37.99;101884.38;4952597;28;45692;-79
2023/11/25 19:44:14;;;;;;;;;0.00;0.00;;;;;22.40;37.93;101879.06;4941521;28;47330;-76
2023/11/25 19:46:40;;;;;;;;;1.00;1.00;;;;;22.37;37.85;101871.44;4956608;28;45360;-76
2023/11/25 19:49:05;;;;;;;;;1.67;1.00;;;;;22.30;37.90;101867.78;4956424;28;45295;-78
2023/11/25 19:51:30;;;;;;;;;0.33;0.33;;;;;22.39;38.26;101868.63;4949682;28;45641;-79
2023/11/25 19:53:56;;;;;;;;;1.00;1.00;;;;;22.34;37.72;101876.22;4951282;28;45461;-76
2023/11/25 19:56:21;;;;;;;;;3.00;2.00;;;;;22.26;37.96;101851.34;4954092;28;45584;-74
2023/11/25 19:58:47;;;;;;;;;1.00;1.00;;;;;22.31;37.90;101866.75;4951293;28;45418;-74
2023/11/25 20:01:12;;;;;;;;;0.00;0.00;;;;;22.45;37.85;101891.88;4951524;28;45470;-71
2023/11/25 20:03:38;;;;;;;;;0.67;0.67;;;;;22.37;38.24;101878.56;4946184;28;46421;-72
2023/11/25 20:06:03;;;;;;;;;1.00;1.00;;;;;22.44;38.23;101890.19;4956445;28;45706;-74
2023/11/25 20:08:28;;;;;;;;;1.67;1.00;;;;;22.45;38.45;101891.03;4938583;28;45716;-70
2023/11/25 20:10:54;;;;;;;;;3.00;2.00;;;;;22.44;38.04;101895.50;4950266;28;45419;-72
2023/11/25 20:13:19;;;;;;;;;1.00;1.00;;;;;22.38;38.25;101878.41;4950033;28;45369;-72
2023/11/25 20:15:45;;;;;;;;;2.00;0.00;;;;;22.46;38.07;101885.56;4949553;28;45461;-71
2023/11/25 20:18:10;;;;;;;;;1.00;1.00;;;;;22.46;38.20;101890.03;4954655;28;45707;-73
2023/11/25 20:20:36;;;;;;;;;2.00;1.00;;;;;22.35;38.13;101872.59;4955990;28;45389;-73
2023/11/25 20:23:01;;;;;;;;;2.00;2.00;;;;;22.48;37.99;101891.53;4955996;28;45627;-73
2023/11/25 20:25:27;;;;;;;;;1.67;0.00;;;;;22.51;38.19;101890.38;4956136;28;45406;-73
2023/11/25 20:27:52;;;;;;;;;1.00;1.00;;;;;22.41;38.16;101869.28;4955930;28;45664;-73
2023/11/25 20:30:17;;;;;;;;;1.00;1.00;;;;;22.52;38.26;101884.94;4956565;28;45439;-73
2023/11/25 20:32:43;;;;;;;;;0.00;0.00;;;;;22.52;38.53;101884.94;4954130;28;47484;-73
2023/11/25 20:35:08;;;;;;;;;2.33;2.33;;;;;22.38;38.32;101870.44;4954388;28;45431;-72
2023/11/25 20:37:34;;;;;;;;;2.00;1.00;;;;;22.56;38.51;101889.94;4954361;28;45503;-73
2023/11/25 20:40:00;;;;;;;;;0.00;0.00;;;;;22.49;38.55;101882.59;4956204;28;45349;-76
2023/11/25 20:42:28;;;;;;;;;1.00;1.00;;;;;22.56;38.21;101892.59;4950362;28;46644;-72
2023/11/25 20:44:54;;;;;;;;;1.00;1.00;;;;;22.49;37.89;101885.25;4948392;28;45374;-73
2023/11/25 20:47:19;;;;;;;;;1.00;1.00;;;;;22.57;38.47;101894.22;4955245;28;45436;-73
2023/11/25 20:49:46;;;;;;;;;0.67;0.67;;;;;22.57;38.07;101899.53;4955828;28;45399;-73
2023/11/25 20:52:14;;;;;;;;;2.00;2.00;;;;;22.57;38.56;101900.38;4955983;28;45997;-79
2023/11/25 20:54:42;;;;;;;;;2.33;1.00;;;;;22.56;38.48;101900.53;4957022;28;45417;-79
2023/11/25 20:57:11;;;;;;;;;0.67;0.67;;;;;22.48;38.00;101893.38;4956045;28;45408;-74
2023/11/25 20:59:37;;;;;;;;;1.00;1.00;;;;;22.44;38.36;101876.09;4955648;28;45390;-74
2023/11/25 21:02:02;;;;;;;;;1.00;1.00;;;;;22.56;37.94;101901.34;4955379;28;45397;-74
2023/11/25 21:04:49;;;;;;;;;1.33;1.33;;;;;22.56;38.63;101901.34;4955661;28;45382;-79
2023/11/25 21:07:14;;;;;;;;;1.00;1.00;;;;;22.43;38.33;101885.06;4945623;28;45507;-74
2023/11/25 21:09:40;;;;;;;;;1.00;1.00;;;;;22.51;38.48;101893.03;4955815;28;52189;-80
2023/11/25 21:12:06;;;;;;;;;2.00;1.00;;;;;22.46;38.47;101882.06;4956547;28;45672;-80
2023/11/25 21:14:31;;;;;;;;;7.00;4.33;;;;;22.54;37.53;101906.00;4954173;28;45313;-75
2023/11/25 21:16:58;;;;;;;;;7.00;4.00;;;;;22.51;37.18;101899.19;4955406;28;45535;-75
2023/11/25 21:19:24;;;;;;;;;7.33;5.00;;;;;22.49;37.48;101897.69;4955709;28;45524;-73
2023/11/25 21:21:50;;;;;;;;;4.00;4.00;;;;;22.52;37.89;101911.47;4955550;28;45429;-74
2023/11/25 21:24:16;;;;;;;;;3.67;3.00;;;;;22.43;37.57;101890.38;4955268;28;45318;-74
2023/11/25 21:26:41;;;;;;;;;6.33;4.33;;;;;22.41;37.95;101885.19;4955679;28;45454;-74
2023/11/25 21:29:06;;;;;;;;;5.00;3.00;;;;;22.51;37.36;101901.84;4957520;28;45330;-74
2023/11/25 21:31:32;;;;;;;;;3.00;3.00;;;;;22.43;37.80;101896.47;4958601;28;51694;-73
2023/11/25 21:33:57;;;;;;;;;3.00;3.00;;;;;22.54;37.68;101919.25;4958559;28;53235;-74
2023/11/25 21:36:22;;;;;;;;;6.67;3.67;;;;;22.50;37.46;101915.25;4958660;28;45346;-74
2023/11/25 21:38:48;;;;;;;;;4.67;3.00;;;;;22.51;37.85;101908.94;4958611;28;50746;-74
2023/11/25 21:41:13;;;;;;;;;6.00;3.00;;;;;22.44;37.62;101892.84;4958831;28;45829;-74
2023/11/25 21:43:38;;;;;;;;;4.33;3.00;;;;;22.47;37.42;101892.53;4945058;28;45268;-73
2023/11/25 21:46:05;;;;;;;;;4.00;3.00;;;;;22.46;38.15;101892.69;4958790;28;45336;-74
2023/11/25 21:48:31;;;;;;;;;3.67;2.33;;;;;22.56;37.94;101911.16;4958361;28;45348;-74
2023/11/25 21:50:58;;;;;;;;;5.33;4.00;;;;;22.58;37.89;101917.13;4958322;28;47313;-73
2023/11/25 21:53:23;;;;;;;;;6.00;5.00;;;;;22.54;37.69;101907.81;4958360;28;45457;-74
2023/11/25 21:55:49;;;;;;;;;4.67;3.00;;;;;22.58;37.45;101912.66;4958543;28;45599;-74
2023/11/25 21:58:15;;;;;;;;;6.67;5.67;;;;;22.55;37.92;101909.47;4957792;28;45385;-73
2023/11/25 22:00:40;;;;;;;;;7.33;3.67;;;;;22.49;37.96;101900.34;4957743;28;55179;-75
2023/11/25 22:03:06;;;;;;;;;4.67;4.67;;;;;22.47;37.37;101894.34;4955315;28;45521;-72
2023/11/25 22:05:31;;;;;;;;;4.67;3.33;;;;;22.58;37.47;101912.66;4940366;28;45444;-73
2023/11/25 22:07:57;;;;;;;;;4.00;4.00;;;;;22.48;37.67;101891.53;4953622;28;45602;-72
2023/11/25 22:10:22;;;;;;;;;4.67;4.67;;;;;22.55;38.13;101909.47;4958198;28;45690;-73
2023/11/25 22:12:47;;;;;;;;;3.00;3.00;;;;;22.51;37.85;101906.31;4957694;28;45492;-73
2023/11/25 22:15:13;;;;;;;;;4.67;3.00;;;;;22.60;37.99;101909.84;4957183;28;45441;-73
2023/11/25 22:17:38;;;;;;;;;6.33;5.00;;;;;22.56;38.00;101903.19;4958033;28;45384;-74
2023/11/25 22:20:05;;;;;;;;;4.33;4.00;;;;;22.60;37.60;101909.84;4958017;28;46827;-73
2023/11/25 22:22:31;;;;;;;;;3.33;3.33;;;;;22.59;38.31;101901.03;4957600;28;45481;-73
2023/11/25 22:24:57;;;;;;;;;3.00;3.00;;;;;22.51;38.09;101888.56;4958072;28;45331;-73
2023/11/25 22:27:25;;;;;;;;;5.00;5.00;;;;;22.56;37.67;101892.59;4957280;28;45455;-75
2023/11/25 22:29:51;;;;;;;;;5.33;5.33;;;;;22.58;37.63;101894.09;4957144;28;47215;-74
2023/11/25 22:32:17;;;;;;;;;6.00;5.33;;;;;22.59;38.29;101900.22;4949083;28;45604;-72
2023/11/25 22:34:42;;;;;;;;;4.00;4.00;;;;;22.47;37.68;101883.75;4953048;28;45814;-73
2023/11/25 22:37:07;;;;;;;;;5.67;5.67;;;;;22.56;38.25;101888.09;4951361;28;45548;-74
2023/11/25 22:39:35;;;;;;;;;5.67;5.33;;;;;22.59;37.83;101884.28;4954480;28;46246;-76
2023/11/25 22:42:01;;;;;;;;;6.00;6.00;;;;;22.52;38.19;101874.34;4952875;28;45537;-76
2023/11/25 22:44:26;;;;;;;;;6.00;6.00;;;;;22.45;38.17;101856.56;4946309;28;45457;-75
2023/11/25 22:46:52;;;;;;;;;4.33;4.33;;;;;22.53;38.11;101880.47;4957366;28;45468;-74
2023/11/25 22:49:18;;;;;;;;;6.67;4.67;;;;;22.20;38.12;101817.50;4957375;28;45402;-73
2023/11/25 22:51:43;;;;;;;;;11.67;10.00;;;;;22.53;36.32;101869.88;4958149;28;45502;-74
2023/11/25 22:54:11;;;;;;;;;6.67;6.00;;;;;22.49;37.54;101866.69;4958129;28;45517;-73
2023/11/25 22:56:36;;;;;;;;;10.00;6.67;;;;;22.54;37.30;101871.50;4958002;28;45573;-74
2023/11/25 22:59:02;;;;;;;;;6.33;5.00;;;;;22.52;37.36;101871.69;4957943;28;45396;-73
2023/11/25 23:01:30;;;;;;;;;9.33;7.67;;;;;22.54;37.21;101875.97;4958340;28;45496;-73
2023/11/25 23:03:56;;;;;;;;;8.67;8.67;;;;;22.50;37.22;101870.19;4958347;28;45495;-74
2023/11/25 23:06:23;;;;;;;;;8.67;8.00;;;;;22.52;36.83;101884.09;4958155;28;45483;-73
2023/11/25 23:08:49;;;;;;;;;7.00;7.00;;;;;22.45;37.14;101873.31;4957951;28;46190;-73
2023/11/25 23:11:14;;;;;;;;;7.00;7.00;;;;;22.52;36.69;101881.44;4957674;28;45402;-73
2023/11/25 23:13:41;;;;;;;;;8.67;8.67;;;;;22.46;37.31;101874.13;4958318;28;45414;-72
2023/11/25 23:16:06;;;;;;;;;8.33;7.00;;;;;22.50;36.96;101883.44;4958202;28;45481;-73
2023/11/25 23:18:32;;;;;;;;;4.00;4.00;;;;;22.39;37.25;101871.28;4957735;28;47096;-73
2023/11/25 23:20:58;;;;;;;;;7.00;7.00;;;;;22.48;36.97;101882.78;4957936;28;45331;-72
2023/11/25 23:23:23;;;;;;;;;9.00;6.67;;;;;22.46;37.28;101882.06;4958075;28;45309;-73
2023/11/25 23:25:49;;;;;;;;;5.00;5.00;;;;;22.45;36.88;101881.28;4957532;28;45691;-72
2023/11/25 23:28:14;;;;;;;;;10.33;7.67;;;;;22.36;37.06;101864.47;4957710;28;46233;-73
2023/11/25 23:30:40;;;;;;;;;7.33;6.00;;;;;22.40;36.95;101868.47;4957987;28;45279;-73
2023/11/25 23:33:05;;;;;;;;;9.67;6.67;;;;;22.43;36.77;101869.97;4957840;28;45387;-72
2023/11/25 23:35:31;;;;;;;;;6.67;6.00;;;;;22.35;37.26;101868.09;4956544;28;45422;-72
2023/11/25 23:37:56;;;;;;;;;5.00;5.00;;;;;22.41;37.15;101874.59;4957308;28;55756;-73
2023/11/25 23:40:21;;;;;;;;;8.00;6.33;;;;;22.42;37.53;101868.31;4957287;28;45330;-73
2023/11/25 23:42:47;;;;;;;;;6.00;6.00;;;;;22.27;37.38;101846.88;4957458;28;51713;-73
2023/11/25 23:45:12;;;;;;;;;7.33;6.67;;;;;22.13;37.39;101824.41;4957582;28;45413;-73
2023/11/25 23:47:38;;;;;;;;;5.33;5.00;;;;;22.35;36.95;101854.84;4956962;28;55362;-73
2023/11/25 23:50:05;;;;;;;;;6.33;6.33;;;;;22.33;37.51;101854.19;4957570;28;45528;-73
2023/11/25 23:52:30;;;;;;;;;5.00;5.00;;;;;22.39;37.11;101864.16;4957223;28;45414;-73
2023/11/25 23:54:56;;;;;;;;;5.67;5.67;;;;;22.32;36.78;101852.53;4957149;28;45358;-73
2023/11/25 23:57:21;;;;;;;;;6.00;4.00;;;;;22.35;37.28;101851.38;4955929;28;47211;-72
2023/11/25 23:59:47;;;;;;;;;6.67;6.00;;;;;22.28;37.15;101840.56;4957468;28;45351;-74
